EmailTwitter


Observations de surface / Canada / CYYZ (71624)

Régions: Québec | Canada | États-Unis | Europe | France | UK | Ailleurs
Station
Affichage
Infos & localisation pour CYYZ (71624) | Aide pour décoder les METARs

Observations prises le 2018-09-21 à 04H00 UTC à TORONTO A, ON (CYYZ)

Etat du ciel: partiellement nuageux.

Température: 18.0 Celsius

Point de rosée: 15.0 Celsius

Humidité relative: 83%

Indice Humidex: 22.

Vents: Est-sud-est à 13 km/h ou 7 noeuds.

Pression au niveau moyen de la mer: 101.65 kilopascals.

Calage altimétrique: 101.62 kilopascals ou 30.01 pouces de mercure.

Visibilité horizontale: 15.00 milles terrestres ou 24.00 kilomètres.

Hauteur du plafond: 1067 mètres ( 3500 pieds ).

Observation METAR:

CYYZ 210400Z 11007KT 15SM SCT014 BKN035 BKN080 18/15 A3001 RMK SC4SC2AC1 SLP165

DENSITY ALT 1000FT=